sensor_id;sensor_type;location;lat;lon;timestamp;temperature;humidity
46181;DHT22;58963;50.438;30.594;2022-08-25T00:02:14;22.60;99.90
46181;DHT22;58963;50.438;30.594;2022-08-25T00:07:33;22.40;93.10
46181;DHT22;58963;50.438;30.594;2022-08-25T00:12:52;22.20;94.60
46181;DHT22;58963;50.438;30.594;2022-08-25T00:18:12;22.70;95.10
46181;DHT22;58963;50.438;30.594;2022-08-25T00:23:31;23.10;99.90
46181;DHT22;58963;50.438;30.594;2022-08-25T00:28:50;22.90;92.20
46181;DHT22;58963;50.438;30.594;2022-08-25T00:34:15;23.10;89.60
46181;DHT22;58963;50.438;30.594;2022-08-25T00:39:37;23.10;90.20
46181;DHT22;58963;50.438;30.594;2022-08-25T00:44:56;22.40;90.10
46181;DHT22;58963;50.438;30.594;2022-08-25T00:50:17;21.90;91.90
46181;DHT22;58963;50.438;30.594;2022-08-25T00:55:37;22.20;96.10
46181;DHT22;58963;50.438;30.594;2022-08-25T01:00:57;21.80;97.80
46181;DHT22;58963;50.438;30.594;2022-08-25T01:06:18;21.90;99.90
46181;DHT22;58963;50.438;30.594;2022-08-25T01:11:37;21.90;98.10
46181;DHT22;58963;50.438;30.594;2022-08-25T01:16:56;21.10;99.90
46181;DHT22;58963;50.438;30.594;2022-08-25T01:22:17;21.30;99.90
46181;DHT22;58963;50.438;30.594;2022-08-25T01:27:37;22.20;98.80
46181;DHT22;58963;50.438;30.594;2022-08-25T01:32:56;21.60;99.90
46181;DHT22;58963;50.438;30.594;2022-08-25T01:38:16;20.80;99.90
46181;DHT22;58963;50.438;30.594;2022-08-25T03:17:11;21.00;99.90
46181;DHT22;58963;50.438;30.594;2022-08-25T03:22:31;20.70;99.90
46181;DHT22;58963;50.438;30.594;2022-08-25T03:27:50;20.90;99.90
46181;DHT22;58963;50.438;30.594;2022-08-25T03:33:10;21.20;99.90
46181;DHT22;58963;50.438;30.594;2022-08-25T03:38:29;20.80;99.90
46181;DHT22;58963;50.438;30.594;2022-08-25T03:43:49;20.10;99.90
46181;DHT22;58963;50.438;30.594;2022-08-25T03:49:12;19.60;99.90
46181;DHT22;58963;50.438;30.594;2022-08-25T03:54:32;19.60;99.90
46181;DHT22;58963;50.438;30.594;2022-08-25T03:59:51;20.40;99.90
46181;DHT22;58963;50.438;30.594;2022-08-25T04:05:11;20.90;99.90
46181;DHT22;58963;50.438;30.594;2022-08-25T04:10:30;20.00;99.90
46181;DHT22;58963;50.438;30.594;2022-08-25T04:15:50;19.50;99.90
46181;DHT22;58963;50.438;30.594;2022-08-25T04:21:10;19.40;99.90
46181;DHT22;58963;50.438;30.594;2022-08-25T04:26:34;19.30;99.90
46181;DHT22;58963;50.438;30.594;2022-08-25T04:31:54;19.40;99.90
46181;DHT22;58963;50.438;30.594;2022-08-25T04:37:13;20.10;99.90
46181;DHT22;58963;50.438;30.594;2022-08-25T04:42:33;20.10;99.90
46181;DHT22;58963;50.438;30.594;2022-08-25T04:47:52;20.40;99.90
46181;DHT22;58963;50.438;30.594;2022-08-25T04:53:13;20.80;99.90
46181;DHT22;58963;50.438;30.594;2022-08-25T04:58:33;21.00;99.90
46181;DHT22;58963;50.438;30.594;2022-08-25T05:03:57;21.10;99.30
46181;DHT22;58963;50.438;30.594;2022-08-25T05:09:17;21.40;98.70
46181;DHT22;58963;50.438;30.594;2022-08-25T05:14:36;21.80;99.90
46181;DHT22;58963;50.438;30.594;2022-08-25T05:19:55;22.60;95.50
46181;DHT22;58963;50.438;30.594;2022-08-25T05:25:15;23.90;83.90
46181;DHT22;58963;50.438;30.594;2022-08-25T05:30:38;25.40;71.50
46181;DHT22;58963;50.438;30.594;2022-08-25T05:35:57;26.60;70.30
46181;DHT22;58963;50.438;30.594;2022-08-25T05:41:19;27.60;64.00
46181;DHT22;58963;50.438;30.594;2022-08-25T05:46:38;28.70;59.10
46181;DHT22;58963;50.438;30.594;2022-08-25T05:51:58;30.20;57.10
46181;DHT22;58963;50.438;30.594;2022-08-25T05:57:17;31.20;51.50
46181;DHT22;58963;50.438;30.594;2022-08-25T06:02:37;31.70;49.80
46181;DHT22;58963;50.438;30.594;2022-08-25T06:08:02;31.80;48.80
46181;DHT22;58963;50.438;30.594;2022-08-25T06:13:21;32.10;50.10
46181;DHT22;58963;50.438;30.594;2022-08-25T06:18:40;32.20;47.20
46181;DHT22;58963;50.438;30.594;2022-08-25T06:23:59;32.40;47.50
46181;DHT22;58963;50.438;30.594;2022-08-25T06:29:19;34.00;53.20
46181;DHT22;58963;50.438;30.594;2022-08-25T06:34:39;34.00;46.40
46181;DHT22;58963;50.438;30.594;2022-08-25T06:39:58;34.80;47.80
46181;DHT22;58963;50.438;30.594;2022-08-25T06:45:17;35.40;45.90
46181;DHT22;58963;50.438;30.594;2022-08-25T06:50:38;34.90;42.30
46181;DHT22;58963;50.438;30.594;2022-08-25T06:55:58;35.00;45.70
46181;DHT22;58963;50.438;30.594;2022-08-25T07:01:20;36.40;44.00
46181;DHT22;58963;50.438;30.594;2022-08-25T07:06:41;37.70;46.40
46181;DHT22;58963;50.438;30.594;2022-08-25T07:12:01;37.90;39.90
46181;DHT22;58963;50.438;30.594;2022-08-25T07:17:22;38.40;40.20
46181;DHT22;58963;50.438;30.594;2022-08-25T07:22:42;38.70;43.50
46181;DHT22;58963;50.438;30.594;2022-08-25T07:28:01;39.10;42.70
46181;DHT22;58963;50.438;30.594;2022-08-25T07:33:20;39.30;43.90
46181;DHT22;58963;50.438;30.594;2022-08-25T07:38:39;39.50;38.70
46181;DHT22;58963;50.438;30.594;2022-08-25T07:43:59;39.00;42.10
46181;DHT22;58963;50.438;30.594;2022-08-25T07:49:20;38.80;43.80
46181;DHT22;58963;50.438;30.594;2022-08-25T07:54:40;38.80;43.40
46181;DHT22;58963;50.438;30.594;2022-08-25T07:59:59;38.30;44.20
46181;DHT22;58963;50.438;30.594;2022-08-25T08:05:19;39.20;42.10
46181;DHT22;58963;50.438;30.594;2022-08-25T08:10:40;39.00;36.30
46181;DHT22;58963;50.438;30.594;2022-08-25T08:15:59;39.70;42.30
46181;DHT22;58963;50.438;30.594;2022-08-25T08:21:21;37.90;44.50
46181;DHT22;58963;50.438;30.594;2022-08-25T08:26:44;39.20;43.20
46181;DHT22;58963;50.438;30.594;2022-08-25T08:32:09;40.00;41.30
46181;DHT22;58963;50.438;30.594;2022-08-25T08:37:31;40.00;40.60
46181;DHT22;58963;50.438;30.594;2022-08-25T08:43:06;40.40;39.10
46181;DHT22;58963;50.438;30.594;2022-08-25T08:48:49;40.80;41.90
46181;DHT22;58963;50.438;30.594;2022-08-25T08:54:18;40.40;43.20
46181;DHT22;58963;50.438;30.594;2022-08-25T08:59:52;38.80;42.40
46181;DHT22;58963;50.438;30.594;2022-08-25T09:05:20;38.90;38.70
46181;DHT22;58963;50.438;30.594;2022-08-25T09:32:53;39.50;42.50
46181;DHT22;58963;50.438;30.594;2022-08-25T09:38:20;39.20;35.10
46181;DHT22;58963;50.438;30.594;2022-08-25T09:43:43;38.70;36.40
46181;DHT22;58963;50.438;30.594;2022-08-25T09:49:13;38.40;34.90
46181;DHT22;58963;50.438;30.594;2022-08-25T09:54:36;38.10;33.30
46181;DHT22;58963;50.438;30.594;2022-08-25T10:05:32;38.10;38.30
46181;DHT22;58963;50.438;30.594;2022-08-25T10:10:55;37.00;34.00
46181;DHT22;58963;50.438;30.594;2022-08-25T10:16:22;37.10;41.20
46181;DHT22;58963;50.438;30.594;2022-08-25T10:21:42;36.20;43.00
46181;DHT22;58963;50.438;30.594;2022-08-25T10:49:30;36.30;36.10
46181;DHT22;58963;50.438;30.594;2022-08-25T10:55:05;35.10;40.80
46181;DHT22;58963;50.438;30.594;2022-08-25T11:00:36;34.90;36.80
46181;DHT22;58963;50.438;30.594;2022-08-25T11:06:02;34.70;42.50
46181;DHT22;58963;50.438;30.594;2022-08-25T11:11:33;35.70;41.20
46181;DHT22;58963;50.438;30.594;2022-08-25T11:22:43;36.50;41.00
46181;DHT22;58963;50.438;30.594;2022-08-25T11:33:23;35.60;40.30
46181;DHT22;58963;50.438;30.594;2022-08-25T11:44:35;35.10;41.90
46181;DHT22;58963;50.438;30.594;2022-08-25T11:50:03;34.90;33.90
46181;DHT22;58963;50.438;30.594;2022-08-25T12:00:48;35.50;35.50
46181;DHT22;58963;50.438;30.594;2022-08-25T12:11:47;35.00;34.00
46181;DHT22;58963;50.438;30.594;2022-08-25T12:17:35;34.90;34.30
46181;DHT22;58963;50.438;30.594;2022-08-25T12:22:56;36.30;33.60
46181;DHT22;58963;50.438;30.594;2022-08-25T12:28:21;37.00;33.30
46181;DHT22;58963;50.438;30.594;2022-08-25T12:39:22;35.60;36.20
46181;DHT22;58963;50.438;30.594;2022-08-25T12:44:46;35.30;35.60
46181;DHT22;58963;50.438;30.594;2022-08-25T12:50:30;35.30;36.60
46181;DHT22;58963;50.438;30.594;2022-08-25T13:18:29;34.80;36.20
46181;DHT22;58963;50.438;30.594;2022-08-25T13:23:54;34.80;36.20
46181;DHT22;58963;50.438;30.594;2022-08-25T13:29:18;35.40;35.80
46181;DHT22;58963;50.438;30.594;2022-08-25T13:34:40;35.20;35.20
46181;DHT22;58963;50.438;30.594;2022-08-25T13:40:12;34.50;35.40
46181;DHT22;58963;50.438;30.594;2022-08-25T13:45:38;34.50;39.60
46181;DHT22;58963;50.438;30.594;2022-08-25T13:51:15;34.40;37.60
46181;DHT22;58963;50.438;30.594;2022-08-25T13:56:39;34.40;35.40
46181;DHT22;58963;50.438;30.594;2022-08-25T14:01:59;34.40;37.70
46181;DHT22;58963;50.438;30.594;2022-08-25T14:12:46;34.30;37.00
46181;DHT22;58963;50.438;30.594;2022-08-25T14:18:12;34.20;35.90
46181;DHT22;58963;50.438;30.594;2022-08-25T14:23:36;34.20;37.10
46181;DHT22;58963;50.438;30.594;2022-08-25T14:28:56;34.00;36.90
46181;DHT22;58963;50.438;30.594;2022-08-25T14:34:18;33.90;36.50
46181;DHT22;58963;50.438;30.594;2022-08-25T14:39:40;33.70;36.90
46181;DHT22;58963;50.438;30.594;2022-08-25T14:44:59;33.70;37.70
46181;DHT22;58963;50.438;30.594;2022-08-25T14:50:18;33.50;37.40
46181;DHT22;58963;50.438;30.594;2022-08-25T14:55:38;33.30;38.10
46181;DHT22;58963;50.438;30.594;2022-08-25T15:00:57;33.10;38.00
46181;DHT22;58963;50.438;30.594;2022-08-25T15:06:20;32.70;37.30
46181;DHT22;58963;50.438;30.594;2022-08-25T15:11:45;32.60;38.70
46181;DHT22;58963;50.438;30.594;2022-08-25T15:17:06;32.30;38.60
46181;DHT22;58963;50.438;30.594;2022-08-25T15:22:26;32.10;39.10
46181;DHT22;58963;50.438;30.594;2022-08-25T15:27:45;32.00;39.70
46181;DHT22;58963;50.438;30.594;2022-08-25T15:33:05;31.80;39.10
46181;DHT22;58963;50.438;30.594;2022-08-25T15:38:25;31.60;41.00
46181;DHT22;58963;50.438;30.594;2022-08-25T15:43:45;31.40;39.70
46181;DHT22;58963;50.438;30.594;2022-08-25T15:49:04;31.20;39.50
46181;DHT22;58963;50.438;30.594;2022-08-25T15:54:25;31.10;39.40
46181;DHT22;58963;50.438;30.594;2022-08-25T15:59:45;30.90;39.70
46181;DHT22;58963;50.438;30.594;2022-08-25T16:05:06;30.80;40.00
46181;DHT22;58963;50.438;30.594;2022-08-25T16:10:26;30.70;40.80
46181;DHT22;58963;50.438;30.594;2022-08-25T16:15:46;30.50;40.10
46181;DHT22;58963;50.438;30.594;2022-08-25T16:21:14;30.30;42.20
46181;DHT22;58963;50.438;30.594;2022-08-25T16:26:37;30.20;42.10
46181;DHT22;58963;50.438;30.594;2022-08-25T16:32:00;30.00;42.40
46181;DHT22;58963;50.438;30.594;2022-08-25T16:37:19;29.80;42.70
46181;DHT22;58963;50.438;30.594;2022-08-25T16:42:39;29.60;43.70
46181;DHT22;58963;50.438;30.594;2022-08-25T16:47:58;29.40;43.70
46181;DHT22;58963;50.438;30.594;2022-08-25T16:53:18;29.20;45.30
46181;DHT22;58963;50.438;30.594;2022-08-25T16:58:58;29.10;46.20
46181;DHT22;58963;50.438;30.594;2022-08-25T17:04:18;28.90;46.40
46181;DHT22;58963;50.438;30.594;2022-08-25T17:09:38;28.60;46.80
46181;DHT22;58963;50.438;30.594;2022-08-25T17:14:57;28.30;47.40
46181;DHT22;58963;50.438;30.594;2022-08-25T17:20:18;28.10;47.60
46181;DHT22;58963;50.438;30.594;2022-08-25T17:25:39;28.00;48.30
46181;DHT22;58963;50.438;30.594;2022-08-25T17:30:59;27.90;49.00
46181;DHT22;58963;50.438;30.594;2022-08-25T17:36:19;27.80;48.50
46181;DHT22;58963;50.438;30.594;2022-08-25T17:41:39;27.70;50.10
46181;DHT22;58963;50.438;30.594;2022-08-25T17:46:59;27.60;49.90
46181;DHT22;58963;50.438;30.594;2022-08-25T17:52:18;27.50;50.80
46181;DHT22;58963;50.438;30.594;2022-08-25T17:57:38;27.30;51.20
46181;DHT22;58963;50.438;30.594;2022-08-25T18:02:57;27.20;51.30
46181;DHT22;58963;50.438;30.594;2022-08-25T18:08:17;27.20;51.90
46181;DHT22;58963;50.438;30.594;2022-08-25T18:13:36;27.00;52.30
46181;DHT22;58963;50.438;30.594;2022-08-25T18:19:06;26.80;52.80
46181;DHT22;58963;50.438;30.594;2022-08-25T18:24:26;26.80;53.30
46181;DHT22;58963;50.438;30.594;2022-08-25T18:29:45;26.80;53.70
46181;DHT22;58963;50.438;30.594;2022-08-25T18:35:05;26.60;54.00
46181;DHT22;58963;50.438;30.594;2022-08-25T18:40:25;26.40;54.30
46181;DHT22;58963;50.438;30.594;2022-08-25T18:45:46;26.30;55.20
46181;DHT22;58963;50.438;30.594;2022-08-25T18:51:06;26.20;56.30
46181;DHT22;58963;50.438;30.594;2022-08-25T18:56:25;26.10;56.50
46181;DHT22;58963;50.438;30.594;2022-08-25T19:01:45;26.00;56.30
46181;DHT22;58963;50.438;30.594;2022-08-25T19:07:05;26.00;55.70
46181;DHT22;58963;50.438;30.594;2022-08-25T19:12:24;26.00;57.40
46181;DHT22;58963;50.438;30.594;2022-08-25T19:17:43;26.00;57.50
46181;DHT22;58963;50.438;30.594;2022-08-25T19:23:03;25.90;57.50
46181;DHT22;58963;50.438;30.594;2022-08-25T19:28:22;25.80;58.80
46181;DHT22;58963;50.438;30.594;2022-08-25T19:33:41;26.00;57.60
46181;DHT22;58963;50.438;30.594;2022-08-25T19:39:01;26.00;57.20
46181;DHT22;58963;50.438;30.594;2022-08-25T19:44:22;26.00;60.10
46181;DHT22;58963;50.438;30.594;2022-08-25T19:49:42;26.10;62.10
46181;DHT22;58963;50.438;30.594;2022-08-25T19:55:01;26.10;61.80
46181;DHT22;58963;50.438;30.594;2022-08-25T20:00:27;25.90;62.20
46181;DHT22;58963;50.438;30.594;2022-08-25T20:05:48;25.60;59.60
46181;DHT22;58963;50.438;30.594;2022-08-25T20:11:07;25.30;61.60
46181;DHT22;58963;50.438;30.594;2022-08-25T20:16:26;25.10;68.30
46181;DHT22;58963;50.438;30.594;2022-08-25T20:21:45;25.00;64.20
46181;DHT22;58963;50.438;30.594;2022-08-25T20:27:05;24.80;64.50
46181;DHT22;58963;50.438;30.594;2022-08-25T20:32:24;24.60;70.00
46181;DHT22;58963;50.438;30.594;2022-08-25T20:37:45;24.90;72.30
46181;DHT22;58963;50.438;30.594;2022-08-25T20:43:05;24.90;75.50
46181;DHT22;58963;50.438;30.594;2022-08-25T20:48:25;25.10;74.70
46181;DHT22;58963;50.438;30.594;2022-08-25T20:53:45;25.10;69.80
46181;DHT22;58963;50.438;30.594;2022-08-25T20:59:05;25.30;71.60
46181;DHT22;58963;50.438;30.594;2022-08-25T21:04:25;25.40;74.10
46181;DHT22;58963;50.438;30.594;2022-08-25T21:09:48;25.30;71.20
46181;DHT22;58963;50.438;30.594;2022-08-25T21:15:08;25.50;79.60
46181;DHT22;58963;50.438;30.594;2022-08-25T21:20:28;25.40;78.40
46181;DHT22;58963;50.438;30.594;2022-08-25T21:25:47;25.30;80.40
46181;DHT22;58963;50.438;30.594;2022-08-25T21:31:08;24.80;78.20
46181;DHT22;58963;50.438;30.594;2022-08-25T21:36:29;24.30;86.60
46181;DHT22;58963;50.438;30.594;2022-08-25T21:41:48;23.80;84.50
46181;DHT22;58963;50.438;30.594;2022-08-25T21:47:08;23.10;86.40
46181;DHT22;58963;50.438;30.594;2022-08-25T21:52:28;22.80;90.30
46181;DHT22;58963;50.438;30.594;2022-08-25T21:57:47;22.60;91.70
46181;DHT22;58963;50.438;30.594;2022-08-25T22:03:07;22.50;96.40
46181;DHT22;58963;50.438;30.594;2022-08-25T22:08:26;22.90;99.30
46181;DHT22;58963;50.438;30.594;2022-08-25T22:13:46;22.80;96.70
46181;DHT22;58963;50.438;30.594;2022-08-25T22:19:10;23.00;97.30
46181;DHT22;58963;50.438;30.594;2022-08-25T22:24:30;22.90;99.00
46181;DHT22;58963;50.438;30.594;2022-08-25T22:29:49;22.80;99.70
46181;DHT22;58963;50.438;30.594;2022-08-25T22:35:09;22.60;99.90
46181;DHT22;58963;50.438;30.594;2022-08-25T22:40:32;22.60;99.90
46181;DHT22;58963;50.438;30.594;2022-08-25T22:45:59;23.20;99.90
46181;DHT22;58963;50.438;30.594;2022-08-25T22:51:25;24.00;99.90
46181;DHT22;58963;50.438;30.594;2022-08-25T22:56:54;23.50;99.90
46181;DHT22;58963;50.438;30.594;2022-08-25T23:02:13;23.40;99.80
46181;DHT22;58963;50.438;30.594;2022-08-25T23:07:35;22.80;99.60
46181;DHT22;58963;50.438;30.594;2022-08-25T23:12:54;22.10;99.90
46181;DHT22;58963;50.438;30.594;2022-08-25T23:18:14;22.20;99.90
46181;DHT22;58963;50.438;30.594;2022-08-25T23:23:34;22.20;99.90
46181;DHT22;58963;50.438;30.594;2022-08-25T23:28:54;22.20;99.90
46181;DHT22;58963;50.438;30.594;2022-08-25T23:34:15;22.00;99.90
46181;DHT22;58963;50.438;30.594;2022-08-25T23:39:35;21.70;99.90
46181;DHT22;58963;50.438;30.594;2022-08-25T23:44:54;21.70;99.90
46181;DHT22;58963;50.438;30.594;2022-08-25T23:50:14;21.80;99.90
46181;DHT22;58963;50.438;30.594;2022-08-25T23:55:34;21.90;99.90
